createdAt,value
2023-01-17T00:01:30.599Z,4.70
2023-01-17T00:04:15.522Z,4.97
2023-01-17T00:07:02.746Z,7.83
2023-01-17T00:09:48.354Z,11.43
2023-01-17T00:12:16.446Z,11.10
2023-01-17T00:14:45.434Z,8.47
2023-01-17T00:17:13.875Z,8.33
2023-01-17T00:19:59.687Z,9.67
2023-01-17T00:22:48.167Z,8.13
2023-01-17T00:25:35.165Z,6.87
2023-01-17T00:28:02.416Z,8.30
2023-01-17T00:30:29.510Z,6.27
2023-01-17T00:32:56.534Z,5.83
2023-01-17T00:35:25.501Z,7.97
2023-01-17T00:38:02.652Z,7.33
2023-01-17T00:40:29.636Z,6.03
2023-01-17T00:43:14.930Z,6.73
2023-01-17T00:46:01.811Z,6.33
2023-01-17T00:48:47.261Z,4.40
2023-01-17T00:51:33.237Z,5.30
2023-01-17T00:54:20.234Z,6.00
2023-01-17T00:57:05.975Z,6.07
2023-01-17T00:59:51.477Z,6.70
2023-01-17T01:02:37.140Z,6.90
2023-01-17T01:05:23.291Z,8.40
2023-01-17T01:08:09.230Z,9.07
2023-01-17T01:10:56.071Z,7.07
2023-01-17T01:13:43.825Z,6.83
2023-01-17T01:16:29.838Z,10.17
2023-01-17T01:19:15.512Z,5.83
2023-01-17T01:22:43.775Z,8.03
2023-01-17T01:25:29.050Z,9.53
2023-01-17T01:28:24.105Z,11.63
2023-01-17T01:31:09.590Z,11.07
2023-01-17T01:33:37.675Z,8.33
2023-01-17T01:36:09.191Z,8.67
2023-01-17T01:38:37.241Z,8.17
2023-01-17T01:41:05.490Z,9.93
2023-01-17T01:43:45.688Z,10.53
2023-01-17T01:46:17.407Z,9.63
2023-01-17T01:48:51.209Z,11.23
2023-01-17T01:51:23.840Z,10.33
2023-01-17T01:53:55.474Z,9.57
2023-01-17T01:56:24.424Z,10.63
2023-01-17T01:58:54.771Z,6.33
2023-01-17T02:01:22.873Z,8.13
2023-01-17T02:03:51.425Z,7.97
2023-01-17T02:06:30.340Z,9.33
2023-01-17T02:09:03.592Z,8.53
2023-01-17T02:11:32.964Z,8.30
2023-01-17T02:14:02.507Z,8.23
2023-01-17T02:16:45.485Z,10.43
2023-01-17T02:19:45.938Z,8.50
2023-01-17T02:22:34.557Z,10.57
2023-01-17T02:25:26.665Z,8.13
2023-01-17T02:28:11.290Z,9.07
2023-01-17T02:30:45.573Z,10.20
2023-01-17T02:33:23.027Z,9.17
2023-01-17T02:35:59.634Z,8.83
2023-01-17T02:38:38.295Z,8.47
2023-01-17T02:41:10.269Z,7.63
2023-01-17T02:43:39.723Z,7.03
2023-01-17T02:46:09.980Z,9.83
2023-01-17T02:48:39.822Z,11.30
2023-01-17T02:51:24.877Z,9.73
2023-01-17T02:54:17.827Z,9.77
2023-01-17T02:56:54.830Z,5.83
2023-01-17T02:59:38.905Z,13.93
2023-01-17T03:02:16.202Z,19.43
2023-01-17T03:04:50.563Z,17.03
2023-01-17T03:07:22.659Z,26.73
2023-01-17T03:09:53.672Z,16.13
2023-01-17T03:12:22.060Z,14.80
2023-01-17T03:14:50.095Z,15.97
2023-01-17T03:17:19.716Z,15.23
2023-01-17T03:19:47.797Z,16.70
2023-01-17T03:22:15.972Z,13.23
2023-01-17T03:24:44.073Z,13.57
2023-01-17T03:27:12.069Z,16.47
2023-01-17T03:29:40.115Z,12.90
2023-01-17T03:32:08.085Z,12.90
2023-01-17T03:34:37.436Z,18.83
2023-01-17T03:37:05.423Z,19.43
2023-01-17T03:39:33.426Z,19.93
2023-01-17T03:42:01.451Z,17.53
2023-01-17T03:44:29.477Z,18.30
2023-01-17T03:46:57.617Z,21.57
2023-01-17T03:49:25.725Z,18.80
2023-01-17T03:51:55.167Z,19.83
2023-01-17T03:54:23.219Z,17.87
2023-01-17T03:56:51.675Z,20.73
2023-01-17T03:59:19.607Z,20.73
2023-01-17T04:01:47.750Z,20.00
2023-01-17T04:04:16.131Z,19.27
2023-01-17T04:06:44.173Z,18.07
2023-01-17T04:09:13.544Z,15.10
2023-01-17T04:11:41.491Z,15.87
2023-01-17T04:14:09.467Z,18.83
2023-01-17T04:16:39.393Z,16.20
2023-01-17T04:19:07.363Z,18.97
2023-01-17T04:21:35.316Z,11.20
2023-01-17T04:24:03.319Z,15.97
2023-01-17T04:26:32.691Z,21.60
2023-01-17T04:29:00.632Z,18.87
2023-01-17T04:31:28.677Z,19.97
2023-01-17T04:33:56.718Z,19.17
2023-01-17T04:36:24.806Z,16.47
2023-01-17T04:38:52.907Z,18.07
2023-01-17T04:41:21.024Z,16.43
2023-01-17T04:43:50.410Z,11.93
2023-01-17T04:46:18.630Z,18.30
2023-01-17T04:48:46.663Z,16.57
2023-01-17T04:51:14.605Z,27.23
2023-01-17T04:53:42.629Z,19.40
2023-01-17T04:56:10.750Z,18.30
2023-01-17T04:58:38.713Z,17.23
2023-01-17T05:01:10.002Z,12.57
2023-01-17T05:03:38.301Z,15.43
2023-01-17T05:06:06.576Z,16.27
2023-01-17T05:08:34.727Z,15.63
2023-01-17T05:11:02.830Z,16.53
2023-01-17T05:13:30.938Z,17.60
2023-01-17T05:15:59.583Z,17.37
2023-01-17T05:18:29.079Z,17.33
2023-01-17T05:21:02.576Z,15.00
2023-01-17T05:23:30.704Z,16.07
2023-01-17T05:25:58.686Z,17.13
2023-01-17T05:28:26.797Z,18.43
2023-01-17T05:30:54.789Z,16.63
2023-01-17T05:33:22.791Z,16.00
2023-01-17T05:35:52.256Z,14.67
2023-01-17T05:38:20.306Z,17.73
2023-01-17T05:40:48.295Z,17.00
2023-01-17T05:43:16.616Z,15.10
2023-01-17T05:45:44.625Z,14.67
2023-01-17T05:48:12.756Z,15.47
2023-01-17T05:50:40.862Z,11.93
2023-01-17T05:53:12.721Z,14.40
2023-01-17T05:55:41.608Z,15.27
2023-01-17T05:58:14.844Z,13.30
2023-01-17T06:00:43.398Z,14.37
2023-01-17T06:03:11.716Z,13.20
2023-01-17T06:05:39.851Z,10.13
2023-01-17T06:08:08.514Z,8.33
2023-01-17T06:10:37.995Z,8.63
2023-01-17T06:13:08.873Z,8.27
2023-01-17T06:15:38.044Z,10.00
2023-01-17T06:18:07.522Z,8.77
2023-01-17T06:20:35.670Z,10.67
2023-01-17T06:23:05.017Z,11.17
2023-01-17T06:25:39.249Z,12.90
2023-01-17T06:28:07.604Z,11.43
2023-01-17T06:30:35.835Z,13.63
2023-01-17T06:33:03.878Z,13.67
2023-01-17T06:35:32.067Z,14.23
2023-01-17T06:38:00.585Z,14.83
2023-01-17T06:40:29.874Z,17.70
2023-01-17T06:43:02.713Z,15.27
2023-01-17T06:45:31.412Z,14.30
2023-01-17T06:48:00.777Z,13.37
2023-01-17T06:50:28.900Z,14.17
2023-01-17T06:52:57.744Z,16.87
2023-01-17T06:55:28.761Z,15.60
2023-01-17T06:57:57.350Z,15.33
2023-01-17T07:00:27.697Z,14.87
2023-01-17T07:02:55.859Z,15.27
2023-01-17T07:05:23.998Z,13.93
2023-01-17T07:07:52.014Z,10.33
2023-01-17T07:10:20.104Z,15.97
2023-01-17T07:12:48.187Z,12.17
2023-01-17T07:15:16.250Z,14.27
2023-01-17T07:17:45.921Z,13.50
2023-01-17T07:20:14.629Z,14.47
2023-01-17T07:22:46.031Z,10.43
2023-01-17T07:25:14.007Z,11.97
2023-01-17T07:27:42.083Z,10.93
2023-01-17T07:30:11.535Z,10.50
2023-01-17T07:32:39.753Z,13.57
2023-01-17T07:35:10.144Z,10.90
2023-01-17T07:37:39.142Z,10.30
2023-01-17T07:40:08.384Z,9.13
2023-01-17T07:42:36.502Z,11.23
2023-01-17T07:45:04.916Z,6.80
2023-01-17T07:47:34.069Z,10.47
2023-01-17T07:50:02.881Z,9.63
2023-01-17T07:52:32.389Z,10.57
2023-01-17T07:55:00.404Z,8.90
2023-01-17T07:57:28.508Z,5.13
2023-01-17T07:59:56.445Z,10.63
2023-01-17T08:02:25.155Z,8.83
2023-01-17T08:04:53.137Z,10.80
2023-01-17T08:07:21.139Z,16.33
2023-01-17T08:09:50.744Z,17.57
2023-01-17T08:12:18.975Z,14.13
2023-01-17T08:14:47.055Z,13.43
2023-01-17T08:17:17.734Z,17.20
2023-01-17T08:19:45.921Z,17.87
2023-01-17T08:22:13.993Z,15.50
2023-01-17T08:24:42.217Z,10.43
2023-01-17T08:27:12.086Z,11.47
2023-01-17T08:29:46.916Z,8.93
2023-01-17T08:32:14.935Z,12.30
2023-01-17T08:34:43.548Z,10.43
2023-01-17T08:37:11.566Z,11.77
2023-01-17T08:39:39.786Z,7.57
2023-01-17T08:42:08.175Z,8.63
2023-01-17T08:44:38.678Z,7.83
2023-01-17T08:47:07.079Z,8.20
2023-01-17T08:49:35.040Z,6.83
2023-01-17T08:52:03.014Z,9.10
2023-01-17T08:54:30.976Z,8.23
2023-01-17T08:56:59.009Z,5.43
2023-01-17T08:59:27.055Z,6.00
2023-01-17T09:01:58.407Z,4.20
2023-01-17T09:04:26.649Z,4.50
2023-01-17T09:06:54.767Z,3.83
2023-01-17T09:09:22.865Z,8.33
2023-01-17T09:11:50.884Z,5.83
2023-01-17T09:14:19.236Z,8.60
2023-01-17T09:16:48.654Z,4.77
2023-01-17T09:19:18.127Z,5.20
2023-01-17T09:21:46.184Z,6.40
2023-01-17T09:24:14.382Z,6.83
2023-01-17T09:26:42.342Z,6.43
2023-01-17T09:29:10.393Z,6.80
2023-01-17T09:31:38.339Z,8.93
2023-01-17T09:34:06.272Z,10.83
2023-01-17T09:36:35.758Z,10.47
2023-01-17T09:39:05.452Z,6.50
2023-01-17T09:41:35.873Z,3.20
2023-01-17T09:44:24.627Z,3.87
2023-01-17T09:46:54.812Z,2.57
2023-01-17T09:49:33.754Z,2.70
2023-01-17T09:52:04.363Z,3.50
2023-01-17T09:54:36.876Z,2.63
2023-01-17T09:57:16.240Z,3.40
2023-01-17T10:00:03.005Z,5.07
2023-01-17T10:02:46.851Z,4.97
2023-01-17T10:05:36.638Z,5.03
2023-01-17T10:08:16.137Z,5.87
2023-01-17T10:10:54.004Z,6.70
2023-01-17T10:13:37.671Z,6.53
2023-01-17T10:16:29.223Z,5.27
2023-01-17T10:19:13.269Z,6.07
2023-01-17T10:21:55.826Z,5.47
2023-01-17T10:24:49.959Z,8.33
2023-01-17T10:27:25.527Z,4.55
2023-01-17T10:29:54.221Z,3.87
2023-01-17T10:32:26.528Z,3.13
2023-01-17T10:34:54.929Z,3.10
2023-01-17T10:37:26.967Z,3.15
2023-01-17T10:40:03.745Z,3.13
2023-01-17T10:42:43.827Z,3.38
2023-01-17T10:45:20.876Z,4.57
2023-01-17T10:47:59.156Z,4.37
2023-01-17T10:50:29.960Z,3.57
2023-01-17T10:53:07.789Z,3.15
2023-01-17T10:55:45.212Z,3.63
2023-01-17T10:58:14.125Z,4.78
2023-01-17T11:00:49.038Z,3.70
2023-01-17T11:03:20.875Z,4.40
2023-01-17T11:06:16.409Z,10.00
2023-01-17T11:08:51.992Z,9.77
2023-01-17T11:11:23.207Z,7.47
2023-01-17T11:13:53.295Z,6.57
2023-01-17T11:16:25.491Z,5.15
2023-01-17T11:19:08.641Z,3.80
2023-01-17T11:21:39.211Z,6.13
2023-01-17T11:24:12.695Z,2.87
2023-01-17T11:26:49.581Z,3.27
2023-01-17T11:29:31.440Z,3.97
2023-01-17T11:32:26.163Z,4.93
2023-01-17T11:35:16.590Z,6.65
2023-01-17T11:37:59.634Z,7.53
2023-01-17T11:40:30.767Z,4.63
2023-01-17T11:43:19.773Z,4.78
2023-01-17T11:46:00.877Z,4.20
2023-01-17T11:48:36.063Z,5.83
2023-01-17T11:51:05.409Z,25.08
2023-01-17T11:53:36.296Z,8.00
2023-01-17T11:56:07.109Z,5.37
2023-01-17T11:58:39.722Z,6.90
2023-01-17T12:01:34.232Z,6.30
2023-01-17T12:04:29.873Z,8.55
2023-01-17T12:07:10.950Z,8.30
2023-01-17T12:09:43.902Z,8.73
2023-01-17T12:12:39.746Z,5.60
2023-01-17T12:15:22.971Z,5.00
2023-01-17T12:18:09.119Z,6.22
2023-01-17T12:20:47.408Z,6.20
2023-01-17T12:23:28.812Z,5.53
2023-01-17T12:26:08.138Z,7.13
2023-01-17T12:28:58.754Z,8.68
2023-01-17T12:31:35.311Z,26.60
2023-01-17T12:34:15.564Z,7.40
2023-01-17T12:36:49.670Z,6.43
2023-01-17T12:39:26.264Z,7.25
2023-01-17T12:42:02.025Z,7.00
2023-01-17T12:44:41.281Z,6.90
2023-01-17T12:47:11.644Z,6.07
2023-01-17T12:49:47.026Z,6.28
2023-01-17T12:52:22.743Z,6.60
2023-01-17T12:54:54.679Z,7.63
2023-01-17T12:57:26.587Z,8.20
2023-01-17T13:00:03.102Z,10.27
2023-01-17T13:02:38.993Z,6.50
2023-01-17T13:05:12.995Z,7.38
2023-01-17T13:07:47.575Z,7.90
2023-01-17T13:10:35.401Z,8.07
2023-01-17T13:13:15.463Z,9.77
2023-01-17T13:15:44.893Z,7.85
2023-01-17T13:18:22.840Z,7.70
2023-01-17T13:21:06.202Z,6.72
2023-01-17T13:23:56.008Z,8.65
2023-01-17T13:26:39.284Z,6.28
2023-01-17T13:29:17.973Z,9.05
2023-01-17T13:31:48.503Z,8.38
2023-01-17T13:34:50.100Z,8.23
2023-01-17T13:37:57.186Z,6.43
2023-01-17T13:40:37.224Z,4.05
2023-01-17T13:43:07.332Z,6.17
2023-01-17T13:45:37.366Z,5.10
2023-01-17T13:48:27.850Z,4.85
2023-01-17T13:50:58.363Z,4.88
2023-01-17T13:53:58.862Z,6.67
2023-01-17T13:56:34.739Z,6.30
2023-01-17T13:59:27.560Z,6.33
2023-01-17T14:01:56.622Z,4.88
2023-01-17T14:04:26.409Z,4.75
2023-01-17T14:07:01.226Z,4.30
2023-01-17T14:09:42.497Z,4.33
2023-01-17T14:12:31.872Z,4.90
2023-01-17T14:15:02.375Z,7.07
2023-01-17T14:17:48.187Z,8.37
2023-01-17T14:20:58.677Z,10.73
2023-01-17T14:23:36.483Z,8.25
2023-01-17T14:26:20.297Z,6.60
2023-01-17T14:28:48.360Z,5.90
2023-01-17T14:31:19.126Z,5.53
2023-01-17T14:33:47.576Z,6.17
2023-01-17T14:36:25.006Z,9.43
2023-01-17T14:38:54.644Z,5.40
2023-01-17T14:41:25.746Z,5.88
2023-01-17T14:43:54.331Z,7.23
2023-01-17T14:46:28.556Z,5.80
2023-01-17T14:49:02.252Z,5.73
2023-01-17T14:51:30.357Z,7.18
2023-01-17T14:54:02.353Z,5.83
2023-01-17T14:56:32.098Z,4.93
2023-01-17T14:59:14.463Z,4.53
2023-01-17T15:01:45.025Z,5.50
2023-01-17T15:04:26.400Z,7.43
2023-01-17T15:06:55.821Z,5.20
2023-01-17T15:09:28.181Z,5.90
2023-01-17T15:11:58.091Z,5.53
2023-01-17T15:14:29.076Z,5.13
2023-01-17T15:16:57.535Z,5.07
2023-01-17T15:19:25.596Z,5.10
2023-01-17T15:21:55.705Z,7.17
2023-01-17T15:24:28.855Z,7.03
2023-01-17T15:26:57.425Z,7.80
2023-01-17T15:29:27.564Z,6.50
2023-01-17T15:31:58.286Z,6.03
2023-01-17T15:34:31.811Z,6.97
2023-01-17T15:37:01.756Z,9.97
2023-01-17T15:39:34.278Z,7.80
2023-01-17T15:42:06.497Z,7.87
2023-01-17T15:44:48.061Z,8.30
2023-01-17T15:47:29.954Z,7.07
2023-01-17T15:49:58.381Z,8.13
2023-01-17T15:52:26.754Z,8.07
2023-01-17T15:55:00.490Z,10.77
2023-01-17T15:57:30.648Z,8.97
2023-01-17T16:00:07.080Z,9.00
2023-01-17T16:02:43.307Z,11.43
2023-01-17T16:05:43.804Z,10.20
2023-01-17T16:08:38.754Z,14.40
2023-01-17T16:11:12.029Z,9.87
2023-01-17T16:13:42.361Z,9.10
2023-01-17T16:16:23.167Z,7.53
2023-01-17T16:18:59.865Z,8.17
2023-01-17T16:21:29.442Z,7.40
2023-01-17T16:23:58.166Z,11.17
2023-01-17T16:26:29.268Z,12.23
2023-01-17T16:28:57.676Z,13.75
2023-01-17T16:31:25.855Z,18.77
2023-01-17T16:33:54.070Z,21.17
2023-01-17T16:36:23.119Z,14.60
2023-01-17T16:38:53.253Z,11.60
2023-01-17T16:41:21.819Z,16.33
2023-01-17T16:43:59.379Z,14.60
2023-01-17T16:46:27.860Z,16.63
2023-01-17T16:48:56.191Z,19.67
2023-01-17T16:51:24.282Z,18.17
2023-01-17T16:53:52.506Z,20.30
2023-01-17T16:56:21.053Z,47.55
2023-01-17T16:58:49.207Z,32.70
2023-01-17T17:01:21.358Z,32.63
2023-01-17T17:03:49.808Z,17.47
2023-01-17T17:06:18.079Z,38.17
2023-01-17T17:08:46.131Z,11.07
2023-01-17T17:11:16.598Z,25.00
2023-01-17T17:13:45.896Z,22.40
2023-01-17T17:16:20.190Z,20.70
2023-01-17T17:18:55.128Z,16.70
2023-01-17T17:21:23.335Z,14.07
2023-01-17T17:23:56.782Z,15.45
2023-01-17T17:26:26.836Z,14.07
2023-01-17T17:28:55.778Z,12.82
2023-01-17T17:31:25.462Z,15.50
2023-01-17T17:33:53.576Z,18.17
2023-01-17T17:36:21.622Z,20.07
2023-01-17T17:38:51.853Z,17.67
2023-01-17T17:41:21.810Z,16.67
2023-01-17T17:43:51.303Z,16.43
2023-01-17T17:46:20.794Z,12.68
2023-01-17T17:48:50.585Z,9.97
2023-01-17T17:51:27.033Z,12.32
2023-01-17T17:53:56.265Z,10.25
2023-01-17T17:56:24.914Z,9.43
2023-01-17T17:58:53.125Z,10.00
2023-01-17T18:01:23.044Z,8.70
2023-01-17T18:03:52.755Z,9.80
2023-01-17T18:06:21.273Z,29.63
2023-01-17T18:08:49.426Z,68.73
2023-01-17T18:11:20.308Z,41.20
2023-01-17T18:13:50.526Z,66.50
2023-01-17T18:16:20.665Z,34.90
2023-01-17T18:18:51.464Z,24.60
2023-01-17T18:21:23.843Z,16.42
2023-01-17T18:23:54.853Z,21.10
2023-01-17T18:26:24.580Z,21.17
2023-01-17T18:28:54.136Z,24.98
2023-01-17T18:31:24.266Z,17.53
2023-01-17T18:33:52.509Z,20.73
2023-01-17T18:36:23.501Z,22.63
2023-01-17T18:38:52.131Z,17.33
2023-01-17T18:41:21.695Z,19.53
2023-01-17T18:43:49.916Z,20.55
2023-01-17T18:46:19.481Z,24.07
2023-01-17T18:48:47.886Z,25.03
2023-01-17T18:51:18.611Z,25.07
2023-01-17T18:53:48.694Z,28.93
2023-01-17T18:56:20.175Z,24.67
2023-01-17T18:58:50.317Z,18.10
2023-01-17T19:01:20.532Z,16.97
2023-01-17T19:03:51.839Z,17.83
2023-01-17T19:06:21.986Z,18.48
2023-01-17T19:08:52.630Z,18.47
2023-01-17T19:11:21.920Z,19.17
2023-01-17T19:13:50.409Z,16.97
2023-01-17T19:16:21.142Z,20.03
2023-01-17T19:18:49.680Z,20.83
2023-01-17T19:21:19.783Z,20.00
2023-01-17T19:23:48.228Z,30.60
2023-01-17T19:26:20.138Z,22.53
2023-01-17T19:28:49.485Z,21.00
2023-01-17T19:31:20.476Z,21.60
2023-01-17T19:33:49.766Z,22.77
2023-01-17T19:36:20.666Z,23.40
2023-01-17T19:39:02.877Z,25.23
2023-01-17T19:41:34.791Z,26.97
2023-01-17T19:44:04.638Z,25.87
2023-01-17T19:46:33.141Z,24.20
2023-01-17T19:49:01.761Z,26.17
2023-01-17T19:51:30.069Z,28.27
2023-01-17T19:53:59.242Z,40.55
2023-01-17T19:56:28.092Z,31.03
2023-01-17T19:59:01.174Z,28.38
2023-01-17T20:01:31.674Z,26.63
2023-01-17T20:04:01.069Z,23.27
2023-01-17T20:06:35.235Z,25.30
2023-01-17T20:09:04.267Z,22.30
2023-01-17T20:11:32.421Z,22.20
2023-01-17T20:14:01.969Z,30.57
2023-01-17T20:16:31.546Z,27.40
2023-01-17T20:19:00.273Z,34.07
2023-01-17T20:21:30.441Z,34.80
2023-01-17T20:24:00.317Z,28.13
2023-01-17T20:26:35.019Z,31.53
2023-01-17T20:29:10.662Z,28.67
2023-01-17T20:31:40.270Z,22.00
2023-01-17T20:34:10.683Z,38.50
2023-01-17T20:36:39.403Z,38.07
2023-01-17T20:39:09.046Z,33.73
2023-01-17T20:41:39.800Z,39.97
2023-01-17T20:44:12.827Z,49.73
2023-01-17T20:46:42.111Z,29.07
2023-01-17T20:49:15.054Z,33.70
2023-01-17T20:51:44.464Z,31.90
2023-01-17T20:54:14.350Z,34.17
2023-01-17T20:56:42.783Z,27.30
2023-01-17T20:59:15.108Z,34.60
2023-01-17T21:01:44.934Z,32.53
2023-01-17T21:04:14.906Z,48.03
2023-01-17T21:06:44.033Z,32.03
2023-01-17T21:09:14.306Z,35.53
2023-01-17T21:11:42.554Z,59.70
2023-01-17T21:14:10.772Z,45.60
2023-01-17T21:16:40.564Z,42.17
2023-01-17T21:19:12.010Z,31.90
2023-01-17T21:21:40.500Z,37.73
2023-01-17T21:24:08.745Z,33.87
2023-01-17T21:26:38.919Z,40.67
2023-01-17T21:29:07.277Z,37.03
2023-01-17T21:31:36.861Z,38.17
2023-01-17T21:34:08.550Z,38.00
2023-01-17T21:36:38.906Z,33.23
2023-01-17T21:39:08.787Z,33.67
2023-01-17T21:41:39.706Z,37.07
2023-01-17T21:44:11.885Z,30.87
2023-01-17T21:46:41.478Z,33.83
2023-01-17T21:49:12.239Z,35.20
2023-01-17T21:51:56.888Z,36.87
2023-01-17T21:54:40.568Z,33.77
2023-01-17T21:57:26.286Z,37.90
2023-01-17T21:59:54.347Z,36.53
2023-01-17T22:02:22.390Z,34.87
2023-01-17T22:04:51.925Z,33.53
2023-01-17T22:07:19.956Z,34.37
2023-01-17T22:09:48.068Z,31.13
2023-01-17T22:12:16.272Z,31.13
2023-01-17T22:14:44.259Z,33.17
2023-01-17T22:17:12.351Z,32.67
2023-01-17T22:19:40.341Z,30.33
2023-01-17T22:22:09.780Z,29.83
2023-01-17T22:24:37.911Z,31.93
2023-01-17T22:27:09.947Z,30.87
2023-01-17T22:29:38.274Z,27.20
2023-01-17T22:32:06.422Z,27.27
2023-01-17T22:34:34.400Z,28.07
2023-01-17T22:37:04.067Z,28.90
2023-01-17T22:39:33.425Z,25.63
2023-01-17T22:42:01.450Z,28.77
2023-01-17T22:44:29.547Z,29.03
2023-01-17T22:46:57.808Z,28.38
2023-01-17T22:49:25.989Z,26.73
2023-01-17T22:51:54.014Z,30.23
2023-01-17T22:54:22.564Z,29.27
2023-01-17T22:56:51.924Z,29.13
2023-01-17T22:59:19.988Z,27.00
2023-01-17T23:01:48.149Z,28.13
2023-01-17T23:04:17.299Z,29.50
2023-01-17T23:06:45.487Z,32.50
2023-01-17T23:09:17.337Z,30.60
2023-01-17T23:11:47.445Z,27.65
2023-01-17T23:14:19.398Z,28.73
2023-01-17T23:17:06.360Z,29.50
2023-01-17T23:19:36.556Z,27.73
2023-01-17T23:22:19.443Z,28.43
2023-01-17T23:24:52.688Z,27.27
2023-01-17T23:27:40.803Z,29.52
2023-01-17T23:30:13.412Z,27.67
2023-01-17T23:32:45.267Z,23.60
2023-01-17T23:35:13.327Z,23.83
2023-01-17T23:37:59.003Z,23.50
2023-01-17T23:40:27.179Z,19.23
2023-01-17T23:43:12.503Z,21.27
2023-01-17T23:45:42.110Z,17.63
2023-01-17T23:48:10.856Z,16.33
2023-01-17T23:50:39.845Z,14.88
2023-01-17T23:53:08.538Z,18.35
2023-01-17T23:55:38.593Z,20.97
2023-01-17T23:58:07.629Z,19.40
